createdAt,value
2018-12-15T00:00:57.266Z,8.67
2018-12-15T00:03:36.087Z,9.00
2018-12-15T00:06:08.208Z,9.17
2018-12-15T00:08:40.376Z,8.53
2018-12-15T00:11:11.319Z,9.00
2018-12-15T00:13:42.154Z,9.07
2018-12-15T00:16:15.235Z,9.57
2018-12-15T00:19:01.336Z,8.87
2018-12-15T00:21:39.716Z,9.33
2018-12-15T00:24:11.827Z,9.40
2018-12-15T00:26:43.576Z,9.60
2018-12-15T00:29:23.301Z,9.30
2018-12-15T00:32:09.163Z,8.67
2018-12-15T00:34:43.192Z,8.43
2018-12-15T00:37:15.301Z,9.30
2018-12-15T00:39:53.054Z,8.80
2018-12-15T00:42:32.773Z,8.47
2018-12-15T00:45:04.117Z,8.30
2018-12-15T00:47:53.505Z,9.23
2018-12-15T00:50:33.756Z,8.67
2018-12-15T00:53:13.087Z,8.60
2018-12-15T00:55:44.327Z,8.40
2018-12-15T00:58:23.713Z,7.80
2018-12-15T01:01:10.787Z,8.97
2018-12-15T01:03:50.574Z,8.70
2018-12-15T01:06:41.538Z,8.10
2018-12-15T01:09:19.393Z,7.70
2018-12-15T01:11:53.323Z,7.57
2018-12-15T01:14:31.022Z,8.07
2018-12-15T01:17:02.151Z,7.07
2018-12-15T01:19:53.012Z,7.13
2018-12-15T01:22:30.756Z,6.80
2018-12-15T01:25:02.006Z,7.17
2018-12-15T01:27:35.168Z,7.50
2018-12-15T01:30:13.819Z,7.37
2018-12-15T01:32:47.205Z,7.37
2018-12-15T01:35:19.270Z,7.13
2018-12-15T01:37:58.806Z,7.50
2018-12-15T01:40:36.806Z,7.40
2018-12-15T01:43:17.306Z,6.90
2018-12-15T01:45:48.838Z,7.53
2018-12-15T01:48:18.793Z,6.20
2018-12-15T01:50:56.609Z,7.37
2018-12-15T01:53:34.511Z,7.07
2018-12-15T01:56:06.466Z,7.33
2018-12-15T01:58:41.201Z,6.47
2018-12-15T02:01:15.211Z,7.20
2018-12-15T02:03:46.392Z,6.33
2018-12-15T02:06:20.331Z,6.70
2018-12-15T02:08:58.938Z,7.10
2018-12-15T02:11:36.797Z,7.47
2018-12-15T02:14:08.257Z,6.47
2018-12-15T02:16:39.406Z,6.77
2018-12-15T02:19:10.426Z,6.63
2018-12-15T02:21:43.162Z,7.03
2018-12-15T02:24:21.668Z,7.07
2018-12-15T02:26:53.910Z,7.17
2018-12-15T02:29:23.777Z,7.63
2018-12-15T02:31:53.751Z,6.80
2018-12-15T02:34:25.312Z,7.37
2018-12-15T02:36:58.309Z,6.70
2018-12-15T02:39:36.031Z,7.40
2018-12-15T02:42:14.035Z,7.10
2018-12-15T02:44:51.767Z,7.73
2018-12-15T02:47:29.780Z,7.63
2018-12-15T02:50:00.812Z,7.20
2018-12-15T02:52:32.781Z,6.90
2018-12-15T02:55:04.740Z,7.23
2018-12-15T02:57:35.915Z,7.37
2018-12-15T03:00:07.037Z,7.43
2018-12-15T03:02:38.101Z,7.43
2018-12-15T03:05:11.926Z,6.73
2018-12-15T03:07:49.920Z,7.53
2018-12-15T03:10:21.127Z,7.77
2018-12-15T03:12:52.250Z,7.77
2018-12-15T03:15:24.115Z,7.50
2018-12-15T03:18:02.960Z,7.70
2018-12-15T03:20:32.910Z,7.50
2018-12-15T03:23:03.934Z,8.13
2018-12-15T03:25:36.241Z,8.20
2018-12-15T03:28:13.970Z,8.23
2018-12-15T03:30:48.197Z,8.10
2018-12-15T03:33:19.360Z,8.50
2018-12-15T03:35:53.377Z,8.53
2018-12-15T03:38:31.203Z,8.63
2018-12-15T03:41:09.353Z,9.00
2018-12-15T03:43:47.362Z,8.00
2018-12-15T03:46:19.678Z,8.87
2018-12-15T03:48:58.171Z,8.20
2018-12-15T03:51:33.194Z,9.13
2018-12-15T03:54:11.022Z,8.10
2018-12-15T03:56:45.160Z,8.80
2018-12-15T03:59:23.157Z,9.20
2018-12-15T04:01:54.401Z,8.57
2018-12-15T04:04:25.753Z,8.60
2018-12-15T04:06:57.497Z,8.93
2018-12-15T04:12:21.390Z,9.13
2018-12-15T04:14:52.449Z,9.10
2018-12-15T04:17:30.330Z,10.23
2018-12-15T04:20:01.571Z,9.43
2018-12-15T04:22:42.939Z,9.67
2018-12-15T04:25:14.507Z,9.80
2018-12-15T04:27:48.461Z,9.93
2018-12-15T04:30:26.223Z,10.40
2018-12-15T04:32:57.910Z,10.63
2018-12-15T04:35:30.845Z,9.97
2018-12-15T04:38:11.697Z,10.17
2018-12-15T04:40:43.182Z,10.50
2018-12-15T04:43:21.553Z,10.77
2018-12-15T04:45:52.855Z,10.40
2018-12-15T04:48:31.334Z,10.50
2018-12-15T04:51:11.374Z,10.60
2018-12-15T04:53:41.907Z,10.90
2018-12-15T04:56:13.833Z,10.43
2018-12-15T04:58:54.464Z,9.90
2018-12-15T05:01:34.682Z,9.47
2018-12-15T05:04:08.865Z,10.40
2018-12-15T05:06:41.927Z,9.97
2018-12-15T05:09:27.200Z,9.53
2018-12-15T05:12:05.518Z,9.77
2018-12-15T05:14:44.424Z,10.20
2018-12-15T05:17:15.681Z,10.17
2018-12-15T05:19:53.635Z,9.30
2018-12-15T05:22:28.786Z,8.80
2018-12-15T05:25:00.020Z,9.53
2018-12-15T05:27:39.692Z,9.20
2018-12-15T05:30:11.614Z,9.17
2018-12-15T05:32:50.056Z,9.03
2018-12-15T05:35:22.269Z,9.80
2018-12-15T05:37:53.202Z,9.50
2018-12-15T05:40:32.722Z,9.47
2018-12-15T05:43:15.042Z,9.43
2018-12-15T05:45:47.530Z,8.53
2018-12-15T05:48:26.295Z,9.17
2018-12-15T05:51:05.138Z,9.90
2018-12-15T05:56:31.234Z,8.97
2018-12-15T05:59:10.818Z,8.97
2018-12-15T06:01:43.253Z,9.03
2018-12-15T06:04:30.301Z,9.50
2018-12-15T06:07:01.402Z,9.33
2018-12-15T06:09:43.560Z,8.90
2018-12-15T06:12:14.233Z,9.33
2018-12-15T06:14:53.733Z,9.13
2018-12-15T06:17:32.679Z,9.63
2018-12-15T06:20:12.520Z,9.50
2018-12-15T06:22:47.536Z,9.20
2018-12-15T06:25:20.562Z,10.00
2018-12-15T06:27:51.690Z,10.17
2018-12-15T06:30:25.187Z,9.10
2018-12-15T06:33:04.722Z,9.70
2018-12-15T06:35:35.969Z,9.87
2018-12-15T06:41:09.362Z,9.67
2018-12-15T06:43:53.888Z,10.43
2018-12-15T06:46:26.647Z,10.07
2018-12-15T06:49:06.373Z,9.77
2018-12-15T06:51:45.301Z,9.53
2018-12-15T06:54:24.546Z,10.33
2018-12-15T06:57:00.262Z,9.57
2018-12-15T06:59:32.576Z,10.13
2018-12-15T07:02:10.275Z,9.87
2018-12-15T07:04:48.095Z,10.10
2018-12-15T07:07:27.886Z,10.27
2018-12-15T07:10:00.098Z,9.93
2018-12-15T07:12:29.726Z,10.13
2018-12-15T07:15:09.388Z,9.63
2018-12-15T07:17:49.252Z,10.77
2018-12-15T07:20:21.458Z,10.53
2018-12-15T07:22:52.474Z,9.93
2018-12-15T07:25:26.452Z,9.37
2018-12-15T07:27:57.426Z,9.90
2018-12-15T07:30:42.966Z,9.67
2018-12-15T07:33:22.226Z,10.80
2018-12-15T07:35:53.750Z,10.60
2018-12-15T07:38:32.076Z,10.63
2018-12-15T07:41:11.827Z,10.40
2018-12-15T07:43:45.782Z,11.47
2018-12-15T07:46:18.767Z,10.20
2018-12-15T07:49:01.053Z,10.57
2018-12-15T07:51:41.298Z,10.53
2018-12-15T07:54:13.574Z,10.87
2018-12-15T07:56:48.621Z,10.67
2018-12-15T07:59:27.726Z,10.87
2018-12-15T08:02:06.948Z,10.90
2018-12-15T08:04:46.212Z,10.33
2018-12-15T08:07:23.977Z,10.90
2018-12-15T08:10:04.378Z,11.47
2018-12-15T08:12:43.054Z,11.03
2018-12-15T08:15:15.426Z,10.93
2018-12-15T08:17:55.936Z,11.60
2018-12-15T08:20:28.224Z,11.40
2018-12-15T08:23:08.053Z,10.87
2018-12-15T08:25:39.232Z,11.33
2018-12-15T08:28:17.054Z,11.37
2018-12-15T08:30:56.208Z,10.23
2018-12-15T08:33:28.548Z,11.23
2018-12-15T08:36:01.600Z,10.30
2018-12-15T08:38:31.656Z,10.40
2018-12-15T08:41:18.823Z,10.70
2018-12-15T08:43:58.164Z,10.17
2018-12-15T08:46:38.079Z,10.40
2018-12-15T08:49:09.345Z,10.40
2018-12-15T08:51:44.927Z,11.87
2018-12-15T08:54:17.200Z,11.03
2018-12-15T08:56:52.659Z,10.43
2018-12-15T08:59:31.605Z,10.43
2018-12-15T09:02:04.746Z,11.03
2018-12-15T09:04:35.815Z,10.73
2018-12-15T09:07:08.682Z,11.27
2018-12-15T09:09:39.932Z,11.53
2018-12-15T09:12:15.322Z,10.70
2018-12-15T09:14:48.443Z,10.33
2018-12-15T09:17:20.450Z,11.63
2018-12-15T09:20:01.077Z,11.37
2018-12-15T09:22:36.162Z,11.13
2018-12-15T09:25:13.984Z,11.70
2018-12-15T09:27:45.297Z,11.77
2018-12-15T09:30:26.622Z,11.07
2018-12-15T09:32:57.923Z,11.97
2018-12-15T09:35:30.726Z,12.17
2018-12-15T09:38:11.328Z,12.40
2018-12-15T09:40:53.254Z,12.30
2018-12-15T09:43:34.804Z,12.27
2018-12-15T09:46:07.868Z,12.40
2018-12-15T09:48:47.226Z,12.50
2018-12-15T09:51:18.530Z,12.30
2018-12-15T09:53:57.212Z,11.87
2018-12-15T09:56:30.324Z,11.90
2018-12-15T09:59:01.368Z,11.77
2018-12-15T10:01:40.276Z,12.33
2018-12-15T10:04:12.568Z,12.43
2018-12-15T10:06:45.167Z,12.33
2018-12-15T10:09:23.728Z,11.90
2018-12-15T10:11:56.142Z,12.13
2018-12-15T10:14:33.998Z,11.90
2018-12-15T10:17:06.290Z,12.23
2018-12-15T10:19:45.083Z,11.73
2018-12-15T10:22:17.411Z,11.93
2018-12-15T10:24:55.228Z,11.40
2018-12-15T10:27:34.036Z,11.20
2018-12-15T10:30:18.496Z,11.47
2018-12-15T10:33:04.995Z,12.17
2018-12-15T10:35:37.138Z,12.87
2018-12-15T10:38:09.235Z,12.47
2018-12-15T10:40:47.685Z,12.47
2018-12-15T10:46:13.594Z,11.93
2018-12-15T10:48:54.882Z,11.43
2018-12-15T10:51:33.275Z,12.30
2018-12-15T10:54:11.142Z,10.80
2018-12-15T10:56:44.046Z,11.60
2018-12-15T10:59:24.579Z,11.23
2018-12-15T11:02:10.094Z,11.57
2018-12-15T11:04:50.721Z,12.40
2018-12-15T11:07:24.796Z,13.07
2018-12-15T11:10:03.689Z,12.87
2018-12-15T11:12:35.985Z,11.10
2018-12-15T11:15:14.467Z,12.80
2018-12-15T11:17:50.520Z,12.23
2018-12-15T11:20:30.378Z,12.67
2018-12-15T11:23:10.022Z,12.53
2018-12-15T11:25:44.065Z,12.33
2018-12-15T11:28:22.622Z,11.80
2018-12-15T11:30:55.283Z,11.97
2018-12-15T11:33:34.743Z,12.50
2018-12-15T11:36:08.821Z,12.20
2018-12-15T11:38:51.071Z,12.30
2018-12-15T11:41:27.524Z,11.10
2018-12-15T11:43:58.720Z,10.87
2018-12-15T11:46:30.901Z,12.07
2018-12-15T11:49:11.506Z,12.00
2018-12-15T11:51:51.603Z,11.43
2018-12-15T11:54:27.572Z,11.47
2018-12-15T11:57:01.066Z,11.80
2018-12-15T11:59:40.863Z,11.77
2018-12-15T12:02:14.095Z,11.70
2018-12-15T12:07:46.596Z,12.13
2018-12-15T12:10:17.463Z,13.73
2018-12-15T12:12:58.809Z,12.50
2018-12-15T12:15:34.043Z,12.40
2018-12-15T12:18:06.243Z,13.33
2018-12-15T12:20:45.061Z,12.80
2018-12-15T12:23:25.196Z,12.07
2018-12-15T12:25:57.678Z,11.83
2018-12-15T12:28:28.616Z,12.57
2018-12-15T12:31:08.314Z,12.33
2018-12-15T12:33:39.488Z,12.23
2018-12-15T12:36:14.494Z,12.77
2018-12-15T12:38:46.716Z,11.80
2018-12-15T12:41:28.968Z,13.10
2018-12-15T12:44:10.694Z,11.67
2018-12-15T12:46:46.225Z,10.80
2018-12-15T12:49:30.479Z,12.23
2018-12-15T12:52:04.666Z,11.60
2018-12-15T12:54:44.724Z,12.10
2018-12-15T12:57:19.758Z,12.23
2018-12-15T12:59:54.466Z,11.73
2018-12-15T13:02:27.711Z,12.93
2018-12-15T13:04:58.756Z,12.37
2018-12-15T13:07:46.416Z,12.87
2018-12-15T13:10:25.183Z,12.37
2018-12-15T13:13:04.116Z,11.63
2018-12-15T13:15:36.217Z,12.13
2018-12-15T13:18:06.977Z,12.17
2018-12-15T13:20:46.659Z,11.80
2018-12-15T13:23:26.573Z,12.37
2018-12-15T13:26:01.345Z,11.57
2018-12-15T13:28:50.369Z,11.83
2018-12-15T13:31:25.108Z,10.60
2018-12-15T13:34:00.254Z,11.00
2018-12-15T13:36:33.327Z,10.93
2018-12-15T13:39:14.826Z,10.70
2018-12-15T13:41:53.701Z,11.17
2018-12-15T13:47:17.052Z,10.83
2018-12-15T13:49:56.259Z,9.97
2018-12-15T13:52:26.719Z,10.70
2018-12-15T13:55:03.601Z,10.20
2018-12-15T13:57:50.930Z,10.60
2018-12-15T14:00:27.244Z,11.37
2018-12-15T14:03:05.986Z,10.77
2018-12-15T14:05:38.083Z,10.53
2018-12-15T14:08:17.606Z,9.90
2018-12-15T14:10:52.639Z,10.70
2018-12-15T14:13:34.963Z,10.67
2018-12-15T14:16:07.415Z,10.33
2018-12-15T14:18:47.358Z,11.07
2018-12-15T14:21:19.640Z,10.77
2018-12-15T14:23:57.536Z,10.83
2018-12-15T14:26:31.738Z,11.00
2018-12-15T14:29:04.312Z,11.43
2018-12-15T14:31:37.527Z,11.37
2018-12-15T14:34:16.356Z,11.67
2018-12-15T14:36:48.315Z,10.30
2018-12-15T14:39:29.076Z,10.50
2018-12-15T14:42:00.224Z,9.90
2018-12-15T14:44:39.446Z,11.20
2018-12-15T14:47:11.647Z,9.93
2018-12-15T14:49:54.756Z,10.33
2018-12-15T14:52:33.847Z,11.43
2018-12-15T14:55:07.969Z,10.67
2018-12-15T14:57:40.282Z,10.83
2018-12-15T15:00:15.180Z,10.90
2018-12-15T15:02:47.399Z,10.80
2018-12-15T15:05:19.126Z,10.37
2018-12-15T15:07:57.521Z,11.00
2018-12-15T15:10:32.379Z,10.73
2018-12-15T15:13:07.983Z,10.77
2018-12-15T15:15:41.216Z,9.83
2018-12-15T15:18:13.291Z,11.23
2018-12-15T15:20:47.153Z,11.10
2018-12-15T15:23:18.247Z,10.90
2018-12-15T15:25:49.091Z,10.07
2018-12-15T15:28:21.255Z,10.70
2018-12-15T15:31:00.796Z,11.23
2018-12-15T15:33:40.720Z,10.30
2018-12-15T15:36:13.126Z,10.90
2018-12-15T15:38:58.249Z,10.77
2018-12-15T15:41:37.894Z,11.43
2018-12-15T15:44:10.256Z,10.67
2018-12-15T15:46:40.216Z,10.80
2018-12-15T15:49:19.007Z,10.90
2018-12-15T15:54:53.413Z,12.30
2018-12-15T15:57:26.063Z,11.13
2018-12-15T16:00:07.851Z,10.40
2018-12-15T16:02:55.823Z,10.87
2018-12-15T16:05:29.027Z,10.37
2018-12-15T16:07:59.944Z,10.63
2018-12-15T16:10:40.371Z,10.80
2018-12-15T16:13:21.577Z,10.83
2018-12-15T16:15:53.933Z,11.73
2018-12-15T16:18:29.474Z,11.13
2018-12-15T16:21:08.364Z,11.57
2018-12-15T16:23:43.214Z,10.60
2018-12-15T16:26:15.283Z,10.47
2018-12-15T16:28:56.522Z,11.17
2018-12-15T16:31:35.760Z,10.97
2018-12-15T16:34:14.940Z,12.40
2018-12-15T16:36:47.036Z,11.47
2018-12-15T16:39:29.333Z,10.67
2018-12-15T16:42:14.081Z,10.87
2018-12-15T16:44:48.529Z,10.80
2018-12-15T16:47:27.730Z,11.27
2018-12-15T16:50:02.706Z,11.33
2018-12-15T16:52:41.850Z,12.53
2018-12-15T16:55:14.421Z,11.50
2018-12-15T16:57:45.106Z,12.13
2018-12-15T17:00:16.159Z,11.47
2018-12-15T17:02:51.673Z,11.33
2018-12-15T17:05:22.737Z,12.00
2018-12-15T17:07:55.025Z,12.27
2018-12-15T17:10:34.705Z,12.37
2018-12-15T17:13:06.924Z,12.63
2018-12-15T17:15:37.822Z,12.67
2018-12-15T17:18:16.676Z,11.40
2018-12-15T17:20:58.583Z,12.23
2018-12-15T17:23:30.347Z,11.80
2018-12-15T17:26:01.204Z,11.20
2018-12-15T17:28:31.003Z,12.40
2018-12-15T17:31:10.692Z,11.47
2018-12-15T17:33:42.802Z,11.37
2018-12-15T17:36:19.232Z,12.20
2018-12-15T17:38:51.350Z,12.77
2018-12-15T17:41:30.338Z,12.03
2018-12-15T17:44:06.582Z,12.47
2018-12-15T17:46:45.422Z,11.90
2018-12-15T17:49:23.319Z,12.57
2018-12-15T17:51:56.760Z,11.97
2018-12-15T17:54:26.811Z,11.90
2018-12-15T17:56:56.651Z,12.87
2018-12-15T17:59:27.461Z,12.03
2018-12-15T18:02:14.138Z,12.57
2018-12-15T18:04:44.848Z,12.37
2018-12-15T18:07:19.480Z,11.30
2018-12-15T18:09:51.767Z,12.17
2018-12-15T18:12:30.319Z,12.10
2018-12-15T18:15:03.874Z,12.30
2018-12-15T18:17:34.710Z,12.03
2018-12-15T18:20:07.649Z,11.90
2018-12-15T18:22:44.443Z,12.77
2018-12-15T18:25:25.938Z,12.57
2018-12-15T18:28:04.359Z,12.40
2018-12-15T18:30:49.452Z,12.20
2018-12-15T18:36:16.396Z,13.27
2018-12-15T18:38:59.014Z,12.33
2018-12-15T18:41:32.838Z,12.77
2018-12-15T18:44:06.642Z,12.10
2018-12-15T18:46:42.228Z,13.17
2018-12-15T18:49:18.230Z,12.20
2018-12-15T18:51:58.273Z,12.60
2018-12-15T18:54:38.119Z,11.83
2018-12-15T18:57:10.589Z,12.80
2018-12-15T18:59:43.375Z,12.23
2018-12-15T19:02:16.408Z,12.23
2018-12-15T19:04:57.408Z,12.50
2018-12-15T19:07:29.268Z,12.87
2018-12-15T19:10:07.997Z,14.90
2018-12-15T19:12:38.799Z,12.63
2018-12-15T19:15:17.423Z,14.70
2018-12-15T19:17:56.134Z,13.27
2018-12-15T19:20:30.081Z,13.83
2018-12-15T19:23:01.003Z,16.07
2018-12-15T19:25:33.203Z,13.00
2018-12-15T19:28:07.608Z,13.70
2018-12-15T19:30:42.570Z,13.37
2018-12-15T19:33:14.558Z,12.80
2018-12-15T19:35:46.829Z,13.43
2018-12-15T19:38:27.584Z,13.10
2018-12-15T19:40:57.656Z,12.63
2018-12-15T19:43:36.485Z,12.33
2018-12-15T19:46:08.633Z,12.93
2018-12-15T19:48:50.792Z,13.63
2018-12-15T19:51:32.901Z,13.23
2018-12-15T19:54:07.337Z,13.30
2018-12-15T19:56:38.442Z,13.43
2018-12-15T19:59:12.191Z,13.37
2018-12-15T20:01:51.274Z,14.20
2018-12-15T20:04:29.109Z,14.07
2018-12-15T20:07:03.287Z,13.30
2018-12-15T20:09:42.003Z,13.47
2018-12-15T20:12:20.866Z,14.17
2018-12-15T20:15:06.459Z,14.30
2018-12-15T20:17:45.750Z,13.30
2018-12-15T20:20:18.051Z,13.73
2018-12-15T20:22:58.462Z,13.60
2018-12-15T20:25:31.011Z,13.00
2018-12-15T20:30:57.663Z,14.40
2018-12-15T20:33:28.703Z,13.43
2018-12-15T20:36:00.675Z,14.23
2018-12-15T20:38:39.475Z,13.37
2018-12-15T20:41:23.838Z,13.97
2018-12-15T20:43:54.684Z,14.10
2018-12-15T20:46:27.637Z,14.47
2018-12-15T20:49:08.291Z,13.53
2018-12-15T20:51:42.959Z,13.87
2018-12-15T20:54:29.430Z,13.97
2018-12-15T20:57:02.184Z,14.00
2018-12-15T20:59:43.366Z,14.03
2018-12-15T21:02:16.223Z,13.33
2018-12-15T21:04:55.978Z,13.67
2018-12-15T21:07:27.299Z,13.83
2018-12-15T21:10:04.781Z,14.27
2018-12-15T21:12:40.030Z,14.40
2018-12-15T21:15:19.958Z,14.20
2018-12-15T21:17:57.891Z,14.07
2018-12-15T21:20:37.597Z,14.17
2018-12-15T21:23:16.765Z,14.87
2018-12-15T21:25:52.273Z,14.60
2018-12-15T21:28:40.951Z,15.23
2018-12-15T21:31:20.606Z,14.50
2018-12-15T21:33:56.561Z,14.50
2018-12-15T21:36:29.804Z,14.67
2018-12-15T21:39:05.242Z,14.00
2018-12-15T21:41:39.710Z,14.27
2018-12-15T21:44:10.770Z,13.63
2018-12-15T21:46:43.924Z,13.90
2018-12-15T21:49:14.910Z,13.13
2018-12-15T21:51:56.964Z,15.00
2018-12-15T21:54:35.881Z,13.53
2018-12-15T21:57:08.074Z,13.00
2018-12-15T21:59:42.099Z,13.73
2018-12-15T22:02:28.694Z,13.07
2018-12-15T22:05:04.589Z,14.07
2018-12-15T22:10:44.003Z,13.03
2018-12-15T22:13:23.543Z,12.90
2018-12-15T22:15:55.691Z,12.93
2018-12-15T22:18:34.702Z,13.00
2018-12-15T22:21:06.821Z,13.27
2018-12-15T22:23:45.720Z,13.07
2018-12-15T22:26:18.922Z,12.90
2018-12-15T22:28:49.866Z,13.13
2018-12-15T22:31:20.921Z,13.70
2018-12-15T22:33:59.829Z,13.53
2018-12-15T22:36:32.004Z,12.67
2018-12-15T22:39:09.980Z,12.80
2018-12-15T22:41:44.800Z,13.17
2018-12-15T22:44:18.136Z,12.30
2018-12-15T22:46:52.180Z,12.10
2018-12-15T22:49:30.559Z,12.80
2018-12-15T22:52:17.509Z,11.43
2018-12-15T22:54:50.102Z,12.53
2018-12-15T22:57:22.934Z,12.60
2018-12-15T23:00:01.577Z,13.07
2018-12-15T23:02:41.137Z,12.43
2018-12-15T23:05:11.506Z,12.90
2018-12-15T23:07:51.100Z,12.57
2018-12-15T23:10:29.933Z,12.53
2018-12-15T23:13:08.851Z,12.07
2018-12-15T23:15:41.439Z,11.90
2018-12-15T23:18:21.019Z,12.00
2018-12-15T23:20:56.310Z,12.43
2018-12-15T23:23:35.875Z,13.30
2018-12-15T23:26:14.620Z,12.30
2018-12-15T23:31:46.172Z,12.00
2018-12-15T23:34:21.116Z,12.77
2018-12-15T23:36:53.027Z,12.43
2018-12-15T23:39:31.697Z,12.90
2018-12-15T23:42:02.694Z,12.27
2018-12-15T23:44:47.793Z,12.70
2018-12-15T23:47:19.462Z,12.60
2018-12-15T23:50:00.769Z,12.40
2018-12-15T23:52:31.620Z,12.90
2018-12-15T23:55:11.424Z,12.70
2018-12-15T23:57:44.650Z,13.10
